Xing Ru Hai — VRPB4 — position and weather

sailwx.info

Track history (hours):
 
Tides and Currents Weather Stations Pressure Air Temp Water Temp Dewpoint Dewpoint Depression Visibility Wind Speed Wind Dir Waves Ship Positions

Xing Ru Hai

Last reported at 2018-Feb-04 04:04 UTC. Time now 2018-Feb-25 06:12 UTC.
Position N 49°44' W 003°37'.
Warning: this ship's position is 21 days out of date.

Length 179 m; draft 9.4 m.

Type: Cargo ship. MMSI: 477713500.

Date/timePositionNaut miles runAvg speedWind from/ knotsBaromVisibWave heightAir tempDewpointWater temp
2018-Feb-04 04:04N 49°44' W 003°37'112.8
2018-Feb-04 03:58N 49°45' W 003°35'613.1
2018-Feb-04 03:28N 49°48' W 003°26'613.4
2018-Feb-04 03:00N 49°51' W 003°18'713.5
2018-Feb-04 02:29N 49°54' W 003°09'613.1
2018-Feb-04 02:00N 49°57' W 002°60'612.6
2018-Feb-04 01:31N 50°00' W 002°51'611.9
2018-Feb-04 01:01N 50°02' W 002°42'611.1
2018-Feb-04 00:31N 50°03' W 002°34'510.1
2018-Feb-04 00:00N 50°05' W 002°26'11 8.4
2018-Feb-03 22:38N 50°07' W 002°09'1 7.4
2018-Feb-03 22:29N 50°08' W 002°07'4 7.3
2018-Feb-03 21:54N 50°09' W 002°01'5 7.5
2018-Feb-03 21:12N 50°10' W 001°53'2 8.1
2018-Feb-03 21:00N 50°10' W 001°50'4 8.6
2018-Feb-03 20:31N 50°12' W 001°44'5 9.6
2018-Feb-03 20:01N 50°13' W 001°37'4513.4
2018-Feb-03 16:38N 50°25' W 000°28'913.9
2018-Feb-03 16:00N 50°28' W 000°15'713.2
2018-Feb-03 15:30N 50°30' W 000°05'612.8
2018-Feb-03 15:00N 50°31' E 000°05'612.4
2018-Feb-03 14:30N 50°33' E 000°14'611.9
2018-Feb-03 14:00N 50°35' E 000°23'611.2
2018-Feb-03 13:29N 50°36' E 000°32'510.6
2018-Feb-03 13:00N 50°38' E 000°39'510.2
2018-Feb-03 12:30N 50°41' E 000°45'510.0
2018-Feb-03 12:00N 50°45' E 000°51'5 9.8
2018-Feb-03 11:30N 50°48' E 000°57'510.2
2018-Feb-03 11:00N 50°51' E 001°04'611.1
2018-Feb-03 10:30N 50°55' E 001°10'612.3
2018-Feb-03 10:00N 50°59' E 001°17'713.7
2018-Feb-03 09:30N 51°03' E 001°26'714.1
2018-Feb-03 09:00N 51°07' E 001°35'713.7
2018-Feb-03 08:30N 51°12' E 001°43'612.9
2018-Feb-03 08:00N 51°17' E 001°49'1711.7
2018-Feb-03 06:30N 51°31' E 002°06'510.5
2018-Feb-03 06:00N 51°35' E 002°11'5 9.9
2018-Feb-03 05:30N 51°39' E 002°17'5 9.4
2018-Feb-03 04:59N 51°43' E 002°21'28 9.2
2018-Feb-03 02:00N 52°04' E 002°50'610.6
2018-Feb-03 01:28N 52°08' E 002°56'511.3
2018-Feb-03 01:00N 52°13' E 003°01'7311.5
2018-Feb-02 18:39N 53°08' E 004°19'2 9.8
2018-Feb-02 18:28N 53°09' E 004°21'26710.4
2018-Feb-01 16:45N 57°05' E 007°60'2 8.6
2018-Feb-01 16:29N 57°07' E 008°02'4 8.5
2018-Feb-01 16:00N 57°10' E 008°06'4 8.2
2018-Feb-01 15:29N 57°14' E 008°10'4 7.8
2018-Feb-01 15:00N 57°17' E 008°15'12 7.6
2018-Feb-01 13:29N 57°23' E 008°33'4 7.7
2018-Feb-01 13:00N 57°25' E 008°39'4 8.0
2018-Feb-01 12:30N 57°27' E 008°45'4 8.3
2018-Feb-01 11:59N 57°29' E 008°52'9 8.5
2018-Feb-01 10:59N 57°33' E 009°06'4 8.3
2018-Feb-01 10:30N 57°34' E 009°13'4 8.5
2018-Feb-01 10:00N 57°36' E 009°21'5 8.5
2018-Feb-01 09:27N 57°38' E 009°29'4 8.8
2018-Feb-01 09:00N 57°39' E 009°35'31 8.8
2018-Feb-01 05:26N 57°49' E 010°31'4 9.0
2018-Feb-01 04:58N 57°49' E 010°39'4 8.8
2018-Feb-01 04:30N 57°48' E 010°46'5 9.9
2018-Feb-01 04:00N 57°43' E 010°46'4 3.9
2018-Feb-01 02:58N 57°41' E 010°40'0 0.0
2018-Feb-01 02:28N 57°41' E 010°40'0 0.0
2018-Feb-01 01:58N 57°41' E 010°40'0 0.0
2018-Feb-01 01:28N 57°41' E 010°40'0 0.0
2018-Feb-01 00:58N 57°41' E 010°40'0 0.0
2018-Feb-01 00:28N 57°41' E 010°40'0 0.0
2018-Jan-31 23:58N 57°41' E 010°40'0 0.0
2018-Jan-31 22:55N 57°41' E 010°40'0 0.0
2018-Jan-31 22:28N 57°41' E 010°40'0 0.0
2018-Jan-31 20:58N 57°41' E 010°40'0 0.0
2018-Jan-31 20:28N 57°41' E 010°40'0 0.1
2018-Jan-31 19:55N 57°41' E 010°40'0 0.1
2018-Jan-31 19:28N 57°41' E 010°40'0 0.0
2018-Jan-31 18:58N 57°41' E 010°40'0 0.0
2018-Jan-31 18:28N 57°41' E 010°40'0 0.0
2018-Jan-31 17:55N 57°41' E 010°40'0 0.1
2018-Jan-31 17:28N 57°41' E 010°40'1 3.2
2018-Jan-31 17:00N 57°40' E 010°42'3 6.3
2018-Jan-31 16:30N 57°40' E 010°48'4 7.4
2018-Jan-31 16:00N 57°40' E 010°55'4 8.9
2018-Jan-31 15:30N 57°39' E 011°03'510.6
2018-Jan-31 15:00N 57°36' E 011°10'611.1
2018-Jan-31 14:30N 57°32' E 011°18'1711.1
2018-Jan-31 13:00N 57°17' E 011°33'612.0
2018-Jan-31 12:30N 57°12' E 011°37'611.8
2018-Jan-31 12:00N 57°06' E 011°41'612.2
2018-Jan-31 11:30N 57°00' E 011°44'2510.7
2018-Jan-31 09:12N 56°36' E 011°44'8310.5
2018-Jan-31 01:17N 55°15' E 011°05'310.8
2018-Jan-31 01:00N 55°12' E 011°06'1211.6
2018-Jan-31 00:00N 55°01' E 011°02'510.0
2018-Jan-30 23:30N 54°57' E 010°57'5 9.7
2018-Jan-30 23:00N 54°53' E 010°53'510.1
2018-Jan-30 22:30N 54°47' E 010°53'10 9.6
2018-Jan-30 21:30N 54°39' E 011°01'510.5
2018-Jan-30 21:00N 54°37' E 011°09'510.2
2018-Jan-30 20:30N 54°34' E 011°17'510.3
2018-Jan-30 20:00N 54°32' E 011°25'510.3
2018-Jan-30 19:30N 54°30' E 011°33'510.0
2018-Jan-30 19:00N 54°27' E 011°41'510.4
2018-Jan-30 18:30N 54°26' E 011°49'510.0
2018-Jan-30 18:00N 54°26' E 011°58'5 9.7
2018-Jan-30 17:30N 54°26' E 012°06'15 9.9
2018-Jan-30 16:01N 54°39' E 012°19'5710.2
2018-Jan-30 10:24N 55°02' E 013°50'13 9.7
2018-Jan-30 09:02N 55°08' E 014°10'110.3
2018-Jan-30 08:55N 55°09' E 014°12'410.3
2018-Jan-30 08:30N 55°12' E 014°16'510.7
2018-Jan-30 08:00N 55°16' E 014°22'510.9
2018-Jan-30 07:30N 55°21' E 014°27'611.1
2018-Jan-30 07:00N 55°25' E 014°34'610.6
2018-Jan-30 06:28N 55°29' E 014°42'511.1
2018-Jan-30 06:00N 55°31' E 014°50'510.5
2018-Jan-30 05:30N 55°33' E 014°58'5 9.9
2018-Jan-30 05:00N 55°35' E 015°06'510.1
2018-Jan-30 04:30N 55°38' E 015°14'5 9.7
2018-Jan-30 04:00N 55°39' E 015°22'5 9.7
2018-Jan-30 03:30N 55°40' E 015°30'5 9.6
2018-Jan-30 03:00N 55°41' E 015°39'5 9.5
2018-Jan-30 02:30N 55°42' E 015°47'5 9.5
2018-Jan-30 02:00N 55°43' E 015°55'5 9.6
2018-Jan-30 01:30N 55°44' E 016°04'5 9.5
2018-Jan-30 01:00N 55°45' E 016°12'5 9.5
2018-Jan-30 00:30N 55°46' E 016°20'5 9.6
2018-Jan-30 00:00N 55°47' E 016°28'4 8.8
2018-Jan-29 23:30N 55°47' E 016°36'5 9.0
2018-Jan-29 23:00N 55°48' E 016°44'5 9.2
2018-Jan-29 22:30N 55°49' E 016°52'  
Track history (hours):
 
Tides and Currents Weather Stations Pressure Air Temp Water Temp Dewpoint Dewpoint Depression Visibility Wind Speed Wind Dir Waves Ship Positions

Xing Ru Hai

Last reported at 2018-Feb-04 04:04 UTC. Time now 2018-Feb-25 06:12 UTC.
Position N 49°44' W 003°37'.
Warning: this ship's position is 21 days out of date.

Length 179 m; draft 9.4 m.

Type: Cargo ship. MMSI: 477713500.

Date/timePositionNaut miles runAvg speedWind from/ knotsBaromVisibWave heightAir tempDewpointWater temp
2018-Feb-04 04:04N 49°44' W 003°37'112.8
2018-Feb-04 03:58N 49°45' W 003°35'613.1
2018-Feb-04 03:28N 49°48' W 003°26'613.4
2018-Feb-04 03:00N 49°51' W 003°18'713.5
2018-Feb-04 02:29N 49°54' W 003°09'613.1
2018-Feb-04 02:00N 49°57' W 002°60'612.6
2018-Feb-04 01:31N 50°00' W 002°51'611.9
2018-Feb-04 01:01N 50°02' W 002°42'611.1
2018-Feb-04 00:31N 50°03' W 002°34'510.1
2018-Feb-04 00:00N 50°05' W 002°26'11 8.4
2018-Feb-03 22:38N 50°07' W 002°09'1 7.4
2018-Feb-03 22:29N 50°08' W 002°07'4 7.3
2018-Feb-03 21:54N 50°09' W 002°01'5 7.5
2018-Feb-03 21:12N 50°10' W 001°53'2 8.1
2018-Feb-03 21:00N 50°10' W 001°50'4 8.6
2018-Feb-03 20:31N 50°12' W 001°44'5 9.6
2018-Feb-03 20:01N 50°13' W 001°37'4513.4
2018-Feb-03 16:38N 50°25' W 000°28'913.9
2018-Feb-03 16:00N 50°28' W 000°15'713.2
2018-Feb-03 15:30N 50°30' W 000°05'612.8
2018-Feb-03 15:00N 50°31' E 000°05'612.4
2018-Feb-03 14:30N 50°33' E 000°14'611.9
2018-Feb-03 14:00N 50°35' E 000°23'611.2
2018-Feb-03 13:29N 50°36' E 000°32'510.6
2018-Feb-03 13:00N 50°38' E 000°39'510.2
2018-Feb-03 12:30N 50°41' E 000°45'510.0
2018-Feb-03 12:00N 50°45' E 000°51'5 9.8
2018-Feb-03 11:30N 50°48' E 000°57'510.2
2018-Feb-03 11:00N 50°51' E 001°04'611.1
2018-Feb-03 10:30N 50°55' E 001°10'612.3
2018-Feb-03 10:00N 50°59' E 001°17'713.7
2018-Feb-03 09:30N 51°03' E 001°26'714.1
2018-Feb-03 09:00N 51°07' E 001°35'713.7
2018-Feb-03 08:30N 51°12' E 001°43'612.9
2018-Feb-03 08:00N 51°17' E 001°49'1711.7
2018-Feb-03 06:30N 51°31' E 002°06'510.5
2018-Feb-03 06:00N 51°35' E 002°11'5 9.9
2018-Feb-03 05:30N 51°39' E 002°17'5 9.4
2018-Feb-03 04:59N 51°43' E 002°21'28 9.2
2018-Feb-03 02:00N 52°04' E 002°50'610.6
2018-Feb-03 01:28N 52°08' E 002°56'511.3
2018-Feb-03 01:00N 52°13' E 003°01'7311.5
2018-Feb-02 18:39N 53°08' E 004°19'2 9.8
2018-Feb-02 18:28N 53°09' E 004°21'26710.4
2018-Feb-01 16:45N 57°05' E 007°60'2 8.6
2018-Feb-01 16:29N 57°07' E 008°02'4 8.5
2018-Feb-01 16:00N 57°10' E 008°06'4 8.2
2018-Feb-01 15:29N 57°14' E 008°10'4 7.8
2018-Feb-01 15:00N 57°17' E 008°15'12 7.6
2018-Feb-01 13:29N 57°23' E 008°33'4 7.7
2018-Feb-01 13:00N 57°25' E 008°39'4 8.0
2018-Feb-01 12:30N 57°27' E 008°45'4 8.3
2018-Feb-01 11:59N 57°29' E 008°52'9 8.5
2018-Feb-01 10:59N 57°33' E 009°06'4 8.3
2018-Feb-01 10:30N 57°34' E 009°13'4 8.5
2018-Feb-01 10:00N 57°36' E 009°21'5 8.5
2018-Feb-01 09:27N 57°38' E 009°29'4 8.8
2018-Feb-01 09:00N 57°39' E 009°35'31 8.8
2018-Feb-01 05:26N 57°49' E 010°31'4 9.0
2018-Feb-01 04:58N 57°49' E 010°39'4 8.8
2018-Feb-01 04:30N 57°48' E 010°46'5 9.9
2018-Feb-01 04:00N 57°43' E 010°46'4 3.9
2018-Feb-01 02:58N 57°41' E 010°40'0 0.0
2018-Feb-01 02:28N 57°41' E 010°40'0 0.0
2018-Feb-01 01:58N 57°41' E 010°40'0 0.0
2018-Feb-01 01:28N 57°41' E 010°40'0 0.0
2018-Feb-01 00:58N 57°41' E 010°40'0 0.0
2018-Feb-01 00:28N 57°41' E 010°40'0 0.0
2018-Jan-31 23:58N 57°41' E 010°40'0 0.0
2018-Jan-31 22:55N 57°41' E 010°40'0 0.0
2018-Jan-31 22:28N 57°41' E 010°40'0 0.0
2018-Jan-31 20:58N 57°41' E 010°40'0 0.0
2018-Jan-31 20:28N 57°41' E 010°40'0 0.1
2018-Jan-31 19:55N 57°41' E 010°40'0 0.1
2018-Jan-31 19:28N 57°41' E 010°40'0 0.0
2018-Jan-31 18:58N 57°41' E 010°40'0 0.0
2018-Jan-31 18:28N 57°41' E 010°40'0 0.0
2018-Jan-31 17:55N 57°41' E 010°40'0 0.1
2018-Jan-31 17:28N 57°41' E 010°40'1 3.2
2018-Jan-31 17:00N 57°40' E 010°42'3 6.3
2018-Jan-31 16:30N 57°40' E 010°48'4 7.4
2018-Jan-31 16:00N 57°40' E 010°55'4 8.9
2018-Jan-31 15:30N 57°39' E 011°03'510.6
2018-Jan-31 15:00N 57°36' E 011°10'611.1
2018-Jan-31 14:30N 57°32' E 011°18'1711.1
2018-Jan-31 13:00N 57°17' E 011°33'612.0
2018-Jan-31 12:30N 57°12' E 011°37'611.8
2018-Jan-31 12:00N 57°06' E 011°41'612.2
2018-Jan-31 11:30N 57°00' E 011°44'2510.7
2018-Jan-31 09:12N 56°36' E 011°44'8310.5
2018-Jan-31 01:17N 55°15' E 011°05'310.8
2018-Jan-31 01:00N 55°12' E 011°06'1211.6
2018-Jan-31 00:00N 55°01' E 011°02'510.0
2018-Jan-30 23:30N 54°57' E 010°57'5 9.7
2018-Jan-30 23:00N 54°53' E 010°53'510.1
2018-Jan-30 22:30N 54°47' E 010°53'10 9.6
2018-Jan-30 21:30N 54°39' E 011°01'510.5
2018-Jan-30 21:00N 54°37' E 011°09'510.2
2018-Jan-30 20:30N 54°34' E 011°17'510.3
2018-Jan-30 20:00N 54°32' E 011°25'510.3
2018-Jan-30 19:30N 54°30' E 011°33'510.0
2018-Jan-30 19:00N 54°27' E 011°41'510.4
2018-Jan-30 18:30N 54°26' E 011°49'510.0
2018-Jan-30 18:00N 54°26' E 011°58'5 9.7
2018-Jan-30 17:30N 54°26' E 012°06'15 9.9
2018-Jan-30 16:01N 54°39' E 012°19'5710.2
2018-Jan-30 10:24N 55°02' E 013°50'13 9.7
2018-Jan-30 09:02N 55°08' E 014°10'110.3
2018-Jan-30 08:55N 55°09' E 014°12'410.3
2018-Jan-30 08:30N 55°12' E 014°16'510.7
2018-Jan-30 08:00N 55°16' E 014°22'510.9
2018-Jan-30 07:30N 55°21' E 014°27'611.1
2018-Jan-30 07:00N 55°25' E 014°34'610.6
2018-Jan-30 06:28N 55°29' E 014°42'511.1
2018-Jan-30 06:00N 55°31' E 014°50'510.5
2018-Jan-30 05:30N 55°33' E 014°58'5 9.9
2018-Jan-30 05:00N 55°35' E 015°06'510.1
2018-Jan-30 04:30N 55°38' E 015°14'5 9.7
2018-Jan-30 04:00N 55°39' E 015°22'5 9.7
2018-Jan-30 03:30N 55°40' E 015°30'5 9.6
2018-Jan-30 03:00N 55°41' E 015°39'5 9.5
2018-Jan-30 02:30N 55°42' E 015°47'5 9.5
2018-Jan-30 02:00N 55°43' E 015°55'5 9.6
2018-Jan-30 01:30N 55°44' E 016°04'5 9.5
2018-Jan-30 01:00N 55°45' E 016°12'5 9.5
2018-Jan-30 00:30N 55°46' E 016°20'5 9.6
2018-Jan-30 00:00N 55°47' E 016°28'4 8.8
2018-Jan-29 23:30N 55°47' E 016°36'5 9.0
2018-Jan-29 23:00N 55°48' E 016°44'5 9.2
2018-Jan-29 22:30N 55°49' E 016°52'  

Dump ship's entire track history